Time;durP1;ratioP1;P1;durP2;ratioP2;P2;SDS_P1;SDS_P2;PMS_P1;PMS_P2;Temp;Humidity;BMP_temperature;BMP_pressure;BME280_temperature;BME280_humidity;BME280_pressure;Samples;Min_cycle;Max_cycle;Signal;HPM_P1;HPM_P2
2022/12/26 00:01:29;;;;;;;58.40;52.60;;;;;;;4.64;91.59;97970.92;106214;1295;22348;-93
2022/12/26 00:03:57;;;;;;;49.90;45.10;;;;;;;4.56;91.46;97949.15;105199;1323;22261;-92
2022/12/26 00:06:28;;;;;;;49.50;44.70;;;;;;;4.44;91.46;97935.65;105567;1322;22218;-89
2022/12/26 00:08:56;;;;;;;44.00;39.30;;;;;;;4.36;91.47;97921.28;105717;1288;22499;-84
2022/12/26 00:11:25;;;;;;;39.60;35.30;;;;;;;4.28;91.33;97925.71;105521;1289;23001;-87
2022/12/26 00:13:58;;;;;;;39.80;35.80;;;;;;;4.22;91.45;97919.60;105957;1289;22155;-89
2022/12/26 00:16:27;;;;;;;38.40;34.60;;;;;;;4.16;91.34;97912.79;105452;1318;22119;-90
2022/12/26 00:18:56;;;;;;;39.90;35.90;;;;;;;4.10;91.77;97916.58;105562;1323;22163;-92
2022/12/26 00:21:26;;;;;;;39.80;35.80;;;;;;;4.07;91.77;97912.23;105320;1324;22152;-91
2022/12/26 00:23:58;;;;;;;32.90;29.70;;;;;;;4.08;91.65;97915.60;105991;1301;22103;-92
2022/12/26 00:26:28;;;;;;;31.30;28.20;;;;;;;4.13;91.85;97913.19;105849;1316;22173;-89
2022/12/26 00:28:57;;;;;;;31.60;28.40;;;;;;;4.17;91.73;97911.25;105342;1321;22151;-90
2022/12/26 00:31:34;;;;;;;33.90;30.40;;;;;;;4.21;92.00;97911.55;105829;1292;22664;31
2022/12/26 00:34:11;;;;;;;38.40;34.70;;;;;;;4.21;91.85;97913.56;106070;1288;22613;31
2022/12/26 00:36:46;;;;;;;32.60;29.30;;;;;;;4.20;91.63;97924.23;107256;1278;22218;31
2022/12/26 00:39:21;;;;;;;34.10;30.40;;;;;;;4.19;91.89;97922.67;106221;1287;24034;31
2022/12/26 00:41:49;;;;;;;31.40;28.20;;;;;;;4.19;91.66;97919.00;105957;1277;22166;-91
2022/12/26 00:44:20;;;;;;;32.00;28.70;;;;;;;4.19;91.52;97916.17;105595;1299;22158;-89
2022/12/26 00:46:48;;;;;;;32.20;29.00;;;;;;;4.20;91.41;97911.20;105408;1323;22183;-90
2022/12/26 00:49:16;;;;;;;35.80;32.20;;;;;;;4.17;91.25;97905.06;105407;1322;22253;-89
2022/12/26 00:51:44;;;;;;;35.10;31.60;;;;;;;4.15;91.60;97902.11;105417;1321;23009;-90
2022/12/26 00:54:12;;;;;;;33.50;30.00;;;;;;;4.11;91.39;97906.09;105393;1321;22145;-88
2022/12/26 00:56:40;;;;;;;32.70;29.20;;;;;;;4.09;91.66;97910.45;105608;1308;22160;-89
2022/12/26 00:59:08;;;;;;;30.80;27.80;;;;;;;4.11;91.65;97914.94;105409;1321;22217;-89
2022/12/26 01:01:41;;;;;;;30.20;27.10;;;;;;;4.14;91.62;97912.23;105178;1324;22238;-87
2022/12/26 01:04:10;;;;;;;31.30;28.20;;;;;;;4.19;91.66;97897.77;105355;1322;22443;-89
2022/12/26 01:06:38;;;;;;;33.00;29.60;;;;;;;4.23;91.58;97894.97;105880;1308;22321;-88
2022/12/26 01:09:06;;;;;;;31.10;27.80;;;;;;;4.24;91.60;97904.84;105470;1321;22696;-89
2022/12/26 01:11:40;;;;;;;30.70;27.70;;;;;;;4.25;91.69;97902.71;105427;1322;22241;-88
2022/12/26 01:14:16;;;;;;;30.10;27.00;;;;;;;4.28;91.74;97898.94;105408;1321;22132;-88
2022/12/26 01:16:45;;;;;;;29.90;26.80;;;;;;;4.31;91.73;97890.70;105135;1324;22224;-87
2022/12/26 01:19:13;;;;;;;29.60;26.60;;;;;;;4.35;91.41;97893.27;105624;1314;22272;-88
2022/12/26 01:21:41;;;;;;;30.90;27.70;;;;;;;4.39;91.65;97895.05;105913;1306;22247;-88
2022/12/26 01:24:10;;;;;;;30.90;27.80;;;;;;;4.43;91.72;97885.21;105921;1314;22156;-87
2022/12/26 01:26:38;;;;;;;31.80;28.50;;;;;;;4.45;91.65;97884.15;105944;1314;22175;-89
2022/12/26 01:29:06;;;;;;;33.50;30.00;;;;;;;4.46;91.75;97884.69;105342;1324;22347;-88
2022/12/26 01:31:34;;;;;;;31.20;27.00;;;;;;;4.49;91.75;97882.36;105406;1321;22281;-89
2022/12/26 01:34:02;;;;;;;28.20;25.40;;;;;;;4.55;91.75;97881.59;105469;1321;22216;-87
2022/12/26 01:36:30;;;;;;;29.00;26.10;;;;;;;4.62;91.81;97889.52;105227;1323;22191;-87
2022/12/26 01:38:57;;;;;;;26.10;22.50;;;;;;;4.69;91.81;97904.33;105232;1324;22862;-88
2022/12/26 01:41:29;;;;;;;28.00;24.40;;;;;;;4.72;91.43;97904.61;105138;1322;22200;-88
2022/12/26 01:44:00;;;;;;;29.00;26.10;;;;;;;4.69;91.61;97903.65;105916;1312;22306;-87
2022/12/26 01:46:43;;;;;;;45.20;40.80;;;;;;;4.69;91.72;97901.55;105811;1316;22173;-89
2022/12/26 01:49:25;;;;;;;32.20;29.10;;;;;;;4.71;91.60;97907.28;105851;1314;22169;-88
2022/12/26 01:52:27;;;;;;;26.30;23.50;;;;;;;4.75;91.36;97906.93;105541;1321;22779;-89
2022/12/26 01:54:56;;;;;;;28.90;25.90;;;;;;;4.80;91.57;97897.07;105354;1322;22210;-89
2022/12/26 01:57:32;;;;;;;28.30;25.50;;;;;;;4.84;91.71;97885.70;105537;1321;22215;-89
2022/12/26 02:00:01;;;;;;;31.80;28.80;;;;;;;4.84;91.61;97874.33;105498;1321;22207;-88
2022/12/26 02:05:33;;;;;;;30.80;27.40;;;;;;;4.88;91.56;97876.91;105312;1321;22304;-91
2022/12/26 02:08:20;;;;;;;28.20;25.10;;;;;;;4.90;91.44;97869.49;105374;1324;22198;-90
2022/12/26 02:10:54;;;;;;;33.50;30.00;;;;;;;4.93;91.34;97872.60;105329;1321;22199;-89
2022/12/26 02:13:22;;;;;;;31.60;28.30;;;;;;;4.93;91.24;97866.04;105553;1315;22137;-91
2022/12/26 02:15:50;;;;;;;30.20;27.10;;;;;;;4.91;91.31;97868.38;105848;1314;22173;-89
2022/12/26 02:18:18;;;;;;;28.00;25.20;;;;;;;4.87;91.40;97864.15;105506;1321;22134;-90
2022/12/26 02:21:39;;;;;;;26.80;24.20;;;;;;;4.86;91.53;97870.50;105844;1308;22948;-91
2022/12/26 02:24:48;;;;;;;25.40;22.70;;;;;;;4.82;90.87;97867.82;105750;1314;22200;-90
2022/12/26 02:27:21;;;;;;;26.50;23.50;;;;;;;4.82;91.22;97851.80;105426;1321;22387;-91
2022/12/26 02:30:06;;;;;;;380.90;301.10;;;;;;;4.82;91.16;97833.70;105520;1315;22209;-91
2022/12/26 02:33:06;;;;;;;258.20;182.60;;;;;;;4.81;91.14;97809.24;105474;1321;22090;-89
2022/12/26 02:35:44;;;;;;;152.60;110.60;;;;;;;4.75;90.89;97804.20;105529;1319;22141;-90
2022/12/26 02:38:51;;;;;;;89.80;80.90;;;;;;;4.70;91.28;97802.60;105473;1321;23023;-88
2022/12/26 02:42:12;;;;;;;47.20;42.50;;;;;;;4.65;91.14;97792.66;105942;1314;22080;-91
2022/12/26 02:48:04;;;;;;;26.00;23.30;;;;;;;4.48;90.63;97797.83;105289;1320;22231;-89
2022/12/26 03:14:46;;;;;;;23.30;20.90;;;;;;;4.39;91.38;97797.52;105356;1316;22320;-90
2022/12/26 03:17:24;;;;;;;23.50;21.00;;;;;;;4.38;91.18;97797.52;105318;1323;22273;-91
2022/12/26 03:20:10;;;;;;;22.50;20.20;;;;;;;4.30;90.94;97805.48;105096;1323;22187;-89
2022/12/26 03:22:55;;;;;;;25.70;20.50;;;;;;;4.18;90.91;97808.85;105867;1299;22178;-88
2022/12/26 03:28:21;;;;;;;25.40;22.80;;;;;;;4.07;91.31;97799.93;105300;1319;22095;-90
2022/12/26 03:30:49;;;;;;;25.90;23.30;;;;;;;4.04;91.26;97799.88;105872;1313;22294;-89
2022/12/26 03:36:40;;;;;;;28.70;25.60;;;;;;;3.86;91.15;97790.50;105315;1321;22416;-90
2022/12/26 04:44:41;;;;;;;35.00;31.60;;;;;;;2.32;92.62;97730.09;104727;1330;22931;-87
2022/12/26 04:47:09;;;;;;;29.40;26.40;;;;;;;2.39;92.69;97730.48;104630;1330;22335;-87
2022/12/26 04:52:53;;;;;;;28.20;25.50;;;;;;;2.49;92.54;97734.91;104597;1330;22207;-86
2022/12/26 04:55:18;;;;;;;31.90;28.80;;;;;;;2.48;93.00;97743.83;104705;1329;22301;-86
2022/12/26 04:57:46;;;;;;;27.80;25.20;;;;;;;2.41;93.30;97755.41;104757;1330;22289;-85
2022/12/26 05:00:15;;;;;;;27.60;25.00;;;;;;;2.41;93.76;97763.80;104925;1321;22988;-86
2022/12/26 05:11:34;;;;;;;26.90;24.20;;;;;;;2.61;93.89;97755.94;105411;1317;22092;-87
2022/12/26 05:14:02;;;;;;;27.40;24.90;;;;;;;2.59;93.57;97759.27;105409;1322;22342;-89
2022/12/26 05:30:28;;;;;;;29.30;26.40;;;;;;;2.16;94.38;97775.11;105991;1315;22056;-85
2022/12/26 05:35:42;;;;;;;30.80;28.10;;;;;;;2.05;94.57;97766.52;105540;1321;22197;-85
2022/12/26 05:38:10;;;;;;;28.40;25.70;;;;;;;2.07;94.50;97762.72;105919;1303;22154;-86
2022/12/26 05:40:38;;;;;;;26.30;23.70;;;;;;;2.11;94.50;97762.54;105355;1322;22340;-86
2022/12/26 05:43:06;;;;;;;27.10;24.50;;;;;;;2.14;94.26;97766.84;105459;1321;22266;-85
2022/12/26 05:45:34;;;;;;;26.10;23.60;;;;;;;2.06;94.06;97764.61;105339;1318;22223;-86
2022/12/26 05:48:02;;;;;;;25.10;22.80;;;;;;;1.97;93.86;97769.76;105627;1314;22837;-87
2022/12/26 05:50:30;;;;;;;25.70;23.10;;;;;;;1.89;94.26;97776.84;105504;1315;22194;-86
2022/12/26 05:52:58;;;;;;;24.80;22.30;;;;;;;1.80;94.36;97781.02;105262;1321;22913;-87
2022/12/26 05:55:26;;;;;;;32.40;29.30;;;;;;;1.79;95.47;97785.09;105776;1314;22242;-87
2022/12/26 05:57:54;;;;;;;28.00;25.30;;;;;;;1.91;95.69;97792.41;105517;1320;22313;-86
2022/12/26 06:00:22;;;;;;;31.00;28.00;;;;;;;2.15;96.61;97803.02;105858;1314;22176;-87
2022/12/26 06:02:50;;;;;;;30.60;27.60;;;;;;;2.36;96.04;97810.98;105536;1321;22935;-87
2022/12/26 06:05:18;;;;;;;34.40;30.90;;;;;;;2.48;96.43;97809.58;105920;1314;22644;-87
2022/12/26 06:07:47;;;;;;;39.70;36.10;;;;;;;2.70;97.46;97796.99;105847;1309;22163;-88
2022/12/26 06:10:15;;;;;;;39.10;35.20;;;;;;;2.87;97.06;97789.98;105382;1321;22168;-87
2022/12/26 06:12:43;;;;;;;38.80;34.90;;;;;;;3.07;97.01;97777.66;105902;1300;22318;-88
2022/12/26 06:15:11;;;;;;;38.10;34.50;;;;;;;3.26;96.68;97778.52;105468;1317;22228;-89
2022/12/26 06:17:39;;;;;;;37.70;33.80;;;;;;;3.38;96.40;97774.71;105510;1321;22220;-88
2022/12/26 06:20:08;;;;;;;36.00;32.40;;;;;;;3.47;96.13;97778.30;105656;1321;23360;-90
2022/12/26 06:22:35;;;;;;;35.30;31.70;;;;;;;3.45;95.53;97779.14;105772;1302;22875;-90
2022/12/26 06:25:04;;;;;;;36.00;32.60;;;;;;;3.40;95.30;97780.41;105914;1314;22259;-89
2022/12/26 06:27:32;;;;;;;35.20;32.00;;;;;;;3.23;95.19;97785.77;105917;1314;22212;-89
2022/12/26 06:30:01;;;;;;;37.40;33.90;;;;;;;3.14;94.90;97783.04;105896;1314;22842;-89
2022/12/26 06:32:29;;;;;;;42.10;37.40;;;;;;;3.09;95.18;97773.79;105443;1321;22858;-88
2022/12/26 06:34:57;;;;;;;41.10;37.10;;;;;;;3.08;95.29;97768.52;105392;1324;22086;-88
2022/12/26 06:37:25;;;;;;;46.80;42.40;;;;;;;3.07;95.38;97769.23;105629;1321;22284;-89
2022/12/26 06:39:53;;;;;;;47.10;42.80;;;;;;;2.99;95.40;97792.02;105361;1321;22856;-88
2022/12/26 06:42:21;;;;;;;40.30;36.40;;;;;;;2.87;95.97;97798.70;105413;1321;22262;-87
2022/12/26 06:44:49;;;;;;;39.30;35.70;;;;;;;2.80;95.68;97799.44;105391;1321;22203;-88
2022/12/26 06:47:17;;;;;;;40.20;36.40;;;;;;;2.79;96.23;97791.86;105609;1314;22182;-89
2022/12/26 06:49:44;;;;;;;41.60;37.60;;;;;;;2.82;96.32;97792.86;105927;1312;22241;-86
2022/12/26 06:52:13;;;;;;;40.50;36.30;;;;;;;2.99;97.23;97784.29;105845;1309;22218;-88
2022/12/26 06:54:41;;;;;;;43.20;38.80;;;;;;;3.19;97.30;97783.98;105630;1314;22128;-88
2022/12/26 06:57:10;;;;;;;43.30;39.40;;;;;;;3.35;97.04;97773.16;105506;1316;22164;-87
2022/12/26 06:59:38;;;;;;;42.30;38.30;;;;;;;3.46;96.84;97761.71;105274;1317;22886;-88
2022/12/26 07:02:09;;;;;;;45.70;41.50;;;;;;;3.45;95.93;97774.13;105103;1324;22286;-87
2022/12/26 07:04:37;;;;;;;43.10;38.80;;;;;;;3.44;96.76;97791.27;105271;1324;22214;-87
2022/12/26 07:07:05;;;;;;;47.90;42.70;;;;;;;3.49;97.16;97796.58;105322;1310;22215;-88
2022/12/26 07:09:33;;;;;;;44.80;39.90;;;;;;;3.55;97.34;97801.58;105746;1312;22296;-86
2022/12/26 07:12:01;;;;;;;41.20;36.90;;;;;;;3.61;97.03;97801.41;105240;1324;22202;-86
2022/12/26 07:14:29;;;;;;;41.50;37.40;;;;;;;3.68;97.12;97802.80;105260;1324;22353;-85
2022/12/26 07:16:57;;;;;;;53.90;48.70;;;;;;;3.81;97.73;97795.90;105364;1323;22959;-85
2022/12/26 07:19:25;;;;;;;52.20;47.30;;;;;;;3.94;97.63;97798.91;105456;1321;22237;-86
2022/12/26 07:21:53;;;;;;;47.70;43.00;;;;;;;4.05;98.04;97799.71;105686;1314;22202;-86
2022/12/26 07:24:21;;;;;;;45.20;40.80;;;;;;;4.14;97.80;97793.52;105355;1322;22200;-87
2022/12/26 07:26:49;;;;;;;48.90;44.30;;;;;;;4.21;97.41;97788.65;105895;1314;22080;-86
2022/12/26 07:29:17;;;;;;;42.50;38.30;;;;;;;4.31;97.76;97784.00;105915;1314;22219;-88
2022/12/26 07:31:45;;;;;;;45.60;41.30;;;;;;;4.38;98.15;97784.77;105364;1315;22262;-86
2022/12/26 07:34:14;;;;;;;41.50;37.60;;;;;;;4.44;98.24;97781.00;105531;1317;22097;-87
2022/12/26 07:36:42;;;;;;;39.60;35.70;;;;;;;4.51;98.88;97781.52;105267;1319;150561;-87
2022/12/26 07:39:12;;;;;;;36.90;33.40;;;;;;;4.56;98.47;97785.48;105276;1322;22244;-87
2022/12/26 07:41:59;;;;;;;39.90;36.30;;;;;;;4.66;99.15;97801.78;105656;1302;22078;-86
2022/12/26 07:44:29;;;;;;;37.40;33.90;;;;;;;4.75;99.63;97822.36;105268;1322;22220;-86
2022/12/26 07:46:59;;;;;;;35.20;31.80;;;;;;;4.80;99.87;97825.64;105206;1321;22260;-88
2022/12/26 07:49:27;;;;;;;34.40;31.20;;;;;;;4.84;99.82;97824.47;105829;1296;22767;-86
2022/12/26 07:51:55;;;;;;;42.30;38.60;;;;;;;4.91;99.91;97818.34;105419;1321;22312;-86
2022/12/26 07:54:25;;;;;;;41.70;37.60;;;;;;;4.96;99.72;97811.15;105096;1324;22216;-85
2022/12/26 07:56:53;;;;;;;48.00;43.60;;;;;;;5.00;99.55;97800.30;105860;1317;22215;-85
2022/12/26 07:59:41;;;;;;;39.20;35.60;;;;;;;5.07;99.27;97800.64;105867;1317;22328;-86
2022/12/26 08:02:10;;;;;;;40.70;36.70;;;;;;;5.13;99.20;97808.23;105288;1323;22091;-87
2022/12/26 08:04:38;;;;;;;46.30;41.80;;;;;;;5.18;99.21;97819.36;105084;1323;22994;-87
2022/12/26 08:07:06;;;;;;;46.60;41.80;;;;;;;5.22;99.21;97829.46;105316;1324;22275;-87
2022/12/26 08:09:34;;;;;;;39.40;35.40;;;;;;;5.27;99.35;97833.47;105267;1323;22230;-86
2022/12/26 08:12:02;;;;;;;34.90;31.60;;;;;;;5.32;99.30;97835.45;105078;1323;22195;-87
2022/12/26 08:14:30;;;;;;;43.10;38.60;;;;;;;5.38;99.54;97839.45;105577;1317;22150;-87
2022/12/26 08:16:58;;;;;;;49.00;44.10;;;;;;;5.47;99.80;97823.17;105657;1315;22200;-87
2022/12/26 08:19:26;;;;;;;40.90;36.80;;;;;;;5.54;99.83;97818.73;105274;1321;22956;-88
2022/12/26 08:21:54;;;;;;;57.90;48.80;;;;;;;5.64;99.72;97819.52;105692;1316;22162;-88
2022/12/26 08:24:22;;;;;;;47.80;40.20;;;;;;;5.71;99.60;97830.91;105378;1322;22189;-86
2022/12/26 08:26:50;;;;;;;31.70;28.50;;;;;;;5.80;99.67;97834.81;105063;1323;22906;-86
2022/12/26 08:29:18;;;;;;;26.60;23.90;;;;;;;5.88;99.64;97834.69;105274;1323;22212;-87
2022/12/26 08:31:46;;;;;;;26.10;23.70;;;;;;;5.98;99.37;97838.34;105374;1315;22358;-89
2022/12/26 08:34:15;;;;;;;34.90;31.50;;;;;;;6.07;99.60;97841.92;105387;1321;22157;-83
2022/12/26 08:36:42;;;;;;;37.00;33.50;;;;;;;6.12;99.36;97841.91;105157;1324;22336;-85
2022/12/26 08:39:10;;;;;;;29.50;26.70;;;;;;;6.17;99.21;97843.08;105371;1322;23020;-85
2022/12/26 08:41:38;;;;;;;29.80;27.00;;;;;;;6.20;98.94;97828.95;105431;1321;23123;-89
2022/12/26 08:44:08;;;;;;;28.90;26.20;;;;;;;6.25;98.82;97829.03;105460;1321;22328;-87
2022/12/26 08:46:54;;;;;;;32.50;29.50;;;;;;;6.26;98.72;97828.50;106060;1314;22248;-87
2022/12/26 08:49:23;;;;;;;31.10;28.10;;;;;;;6.26;98.52;97827.59;105267;1324;22247;-86
2022/12/26 08:51:51;;;;;;;38.50;34.80;;;;;;;6.26;98.33;97829.30;105790;1310;22318;-85
2022/12/26 08:54:21;;;;;;;30.50;27.70;;;;;;;6.28;98.66;97839.77;105652;1302;22193;-88
2022/12/26 08:56:49;;;;;;;33.50;30.20;;;;;;;6.29;98.35;97847.75;105435;1311;22232;-87
2022/12/26 08:59:17;;;;;;;32.20;29.00;;;;;;;6.29;98.44;97851.23;105283;1319;22136;-89
2022/12/26 09:01:45;;;;;;;36.80;33.40;;;;;;;6.31;98.58;97845.65;105473;1316;22209;-86
2022/12/26 09:04:13;;;;;;;33.90;30.00;;;;;;;6.35;98.76;97833.29;105865;1309;22249;-87
2022/12/26 09:06:41;;;;;;;29.50;26.70;;;;;;;6.41;98.32;97827.38;105642;1311;22892;-86
2022/12/26 09:09:13;;;;;;;29.10;26.60;;;;;;;6.43;98.09;97823.99;105802;1315;22190;-88
2022/12/26 09:11:42;;;;;;;32.90;29.60;;;;;;;6.44;98.13;97828.08;105194;1321;22323;-86
2022/12/26 09:14:10;;;;;;;32.50;29.40;;;;;;;6.45;98.19;97843.33;105218;1321;22222;-87
2022/12/26 09:16:41;;;;;;;33.90;30.70;;;;;;;6.45;98.07;97849.10;105461;1313;22200;-87
2022/12/26 09:19:18;;;;;;;35.60;32.00;;;;;;;6.45;98.22;97847.50;105691;1314;22114;-89
2022/12/26 09:21:48;;;;;;;36.00;32.50;;;;;;;6.50;98.25;97843.52;105878;1300;22178;-90
2022/12/26 09:24:17;;;;;;;41.20;37.30;;;;;;;6.55;98.33;97837.50;105939;1314;22070;-87
2022/12/26 09:26:45;;;;;;;43.90;39.70;;;;;;;6.62;98.42;97832.27;105359;1322;22214;-87
2022/12/26 09:29:17;;;;;;;39.70;35.90;;;;;;;6.69;98.54;97826.99;105772;1306;22866;-89
2022/12/26 09:31:45;;;;;;;48.40;43.40;;;;;;;6.76;98.51;97821.92;105485;1323;22203;-89
2022/12/26 09:34:13;;;;;;;41.10;37.00;;;;;;;6.86;98.32;97823.80;105489;1324;22175;-89
2022/12/26 09:36:42;;;;;;;40.50;36.40;;;;;;;6.97;98.43;97827.17;105837;1317;23070;-89
2022/12/26 09:39:10;;;;;;;39.90;36.20;;;;;;;7.11;98.57;97822.54;105395;1323;22218;-89
2022/12/26 09:42:00;;;;;;;32.30;29.40;;;;;;;7.25;98.75;97817.56;105583;1317;22178;-88
2022/12/26 09:45:03;;;;;;;29.40;26.50;;;;;;;7.24;98.03;97806.11;105390;1323;22182;-90
2022/12/26 09:47:55;;;;;;;28.10;25.30;;;;;;;7.32;98.00;97814.41;105380;1322;22629;-91
2022/12/26 09:50:30;;;;;;;30.60;27.70;;;;;;;7.39;98.10;97812.81;105673;1316;22093;-89
2022/12/26 09:53:22;;;;;;;32.60;29.30;;;;;;;7.45;98.09;97817.48;105960;1312;22104;-90
2022/12/26 09:56:00;;;;;;;35.00;31.70;;;;;;;7.48;98.27;97818.79;105703;1314;22072;-90
2022/12/26 09:58:48;;;;;;;30.10;27.20;;;;;;;7.49;97.92;97824.53;105340;1300;22312;-89
2022/12/26 10:01:20;;;;;;;29.80;26.90;;;;;;;7.49;97.82;97833.90;105705;1303;22255;-88
2022/12/26 10:03:51;;;;;;;32.10;28.80;;;;;;;7.52;97.91;97837.15;105382;1316;22119;-89
2022/12/26 10:06:22;;;;;;;34.60;31.40;;;;;;;7.55;97.99;97833.54;105384;1322;22079;-89
2022/12/26 10:09:31;;;;;;;39.70;35.80;;;;;;;7.57;97.97;97841.20;105280;1321;22177;-86
2022/12/26 10:12:02;;;;;;;;;;;;;;;7.50;97.79;97833.58;105363;1323;22454;-88
2022/12/26 10:14:45;;;;;;;32.80;29.70;;;;;;;7.55;97.74;97831.66;105803;1312;22323;-86
2022/12/26 10:17:37;;;;;;;33.40;30.30;;;;;;;7.62;98.01;97826.19;105352;1321;22036;-88
2022/12/26 10:20:27;;;;;;;33.60;30.50;;;;;;;7.70;97.95;97824.09;105715;1312;22491;-89
2022/12/26 10:23:16;;;;;;;31.40;28.40;;;;;;;7.77;97.70;97817.76;105400;1323;22214;-87
2022/12/26 10:25:57;;;;;;;31.20;28.20;;;;;;;7.76;98.13;97809.27;105746;1315;22067;-87
2022/12/26 10:28:40;;;;;;;33.40;29.10;;;;;;;7.82;97.92;97804.88;105909;1306;22817;-89
2022/12/26 10:31:20;;;;;;;32.20;29.20;;;;;;;7.89;98.00;97804.38;105175;1312;22096;-90
2022/12/26 10:34:04;;;;;;;30.70;27.50;;;;;;;7.97;98.12;97794.43;105610;1312;22743;-90
2022/12/26 10:36:48;;;;;;;33.40;30.20;;;;;;;8.04;98.18;97788.61;105377;1323;22237;-87
2022/12/26 10:39:26;;;;;;;34.40;30.80;;;;;;;8.09;97.91;97782.23;105392;1321;22193;-89
2022/12/26 10:41:59;;;;;;;30.20;27.20;;;;;;;8.18;97.96;97784.11;105292;1324;22164;-89
2022/12/26 10:44:27;;;;;;;30.80;27.90;;;;;;;8.25;98.12;97780.98;105096;1323;22081;-87
2022/12/26 10:47:00;;;;;;;35.50;32.10;;;;;;;8.32;97.83;97776.34;105500;1321;22126;-91
2022/12/26 10:49:29;;;;;;;32.20;29.10;;;;;;;8.41;98.10;97773.18;105776;1314;22260;-88
2022/12/26 10:52:00;;;;;;;31.50;28.50;;;;;;;8.46;97.89;97773.56;105689;1311;22187;-88
2022/12/26 10:54:29;;;;;;;27.50;24.90;;;;;;;8.48;97.55;97777.56;105224;1323;22258;-88
2022/12/26 10:57:00;;;;;;;25.50;23.10;;;;;;;8.46;97.28;97772.88;105351;1318;22207;-88
2022/12/26 10:59:37;;;;;;;24.70;22.30;;;;;;;8.45;97.51;97762.83;105739;1312;22154;-91
2022/12/26 11:02:27;;;;;;;26.60;23.50;;;;;;;8.46;97.46;97758.52;105603;1321;22102;-88
2022/12/26 11:05:12;;;;;;;28.30;25.40;;;;;;;8.50;97.75;97759.71;105348;1323;22720;-89
2022/12/26 11:08:11;;;;;;;29.90;27.20;;;;;;;8.55;97.68;97759.01;105380;1321;22127;-89
2022/12/26 11:10:45;;;;;;;27.90;25.30;;;;;;;8.57;97.32;97750.65;105104;1323;22133;-88
2022/12/26 11:13:22;;;;;;;25.90;23.40;;;;;;;8.63;97.23;97752.67;105372;1299;22026;-90
2022/12/26 11:15:53;;;;;;;27.10;24.70;;;;;;;8.67;96.96;97765.03;105370;1324;22224;-88
2022/12/26 11:18:27;;;;;;;25.30;22.80;;;;;;;8.68;97.36;97762.38;105376;1323;22213;-91
2022/12/26 11:21:13;;;;;;;25.10;22.80;;;;;;;8.72;97.21;97751.70;105390;1324;22197;-92
2022/12/26 11:23:41;;;;;;;26.20;23.60;;;;;;;8.73;96.57;97754.67;105816;1316;22240;-86
2022/12/26 11:26:21;;;;;;;37.70;34.20;;;;;;;8.78;96.94;97762.19;105413;1323;22866;-86
2022/12/26 11:29:15;;;;;;;51.80;46.90;;;;;;;8.77;97.18;97759.03;105379;1321;22140;-88
2022/12/26 11:31:55;;;;;;;43.70;39.60;;;;;;;8.77;97.30;97744.74;105297;1323;23039;-88
2022/12/26 11:34:33;;;;;;;57.00;51.00;;;;;;;8.83;97.65;97739.83;105116;1316;22834;-89
2022/12/26 11:37:05;;;;;;;81.20;55.80;;;;;;;8.85;97.17;97745.38;105395;1322;22091;-87
2022/12/26 11:39:36;;;;;;;44.40;40.20;;;;;;;8.84;96.95;97752.21;105300;1324;22151;-86
2022/12/26 11:42:10;;;;;;;57.10;51.60;;;;;;;8.80;96.65;97746.14;105066;1318;22091;-87
2022/12/26 11:44:44;;;;;;;45.60;41.00;;;;;;;8.76;96.86;97738.95;105290;1323;22095;-91
2022/12/26 11:47:19;;;;;;;79.90;68.30;;;;;;;8.72;96.70;97738.42;105141;1324;22099;-88
2022/12/26 11:50:10;;;;;;;61.60;55.30;;;;;;;8.70;96.61;97732.48;105723;1305;22349;-87
2022/12/26 11:52:56;;;;;;;48.90;43.90;;;;;;;8.73;96.97;97730.30;105400;1321;22093;-88
2022/12/26 11:55:35;;;;;;;31.30;28.10;;;;;;;8.78;96.94;97737.96;105307;1324;22727;-86
2022/12/26 11:58:09;;;;;;;34.50;31.30;;;;;;;8.86;96.68;97738.92;105283;1324;22213;-85
2022/12/26 12:01:04;;;;;;;30.70;27.70;;;;;;;8.99;96.74;97732.96;105418;1313;22922;-89
2022/12/26 12:03:35;;;;;;;47.40;43.10;;;;;;;9.16;96.55;97728.57;105722;1292;22397;-93
2022/12/26 12:06:20;;;;;;;29.40;26.70;;;;;;;9.16;96.98;97722.88;105748;1293;22383;31
2022/12/26 12:09:08;;;;;;;55.90;50.70;;;;;;;9.20;96.60;97723.57;105584;1289;22923;-90
2022/12/26 12:11:52;;;;;;;41.80;38.10;;;;;;;9.17;96.10;97723.88;105274;1324;22338;-90
2022/12/26 12:14:51;;;;;;;41.90;37.90;;;;;;;9.10;96.46;97722.85;105665;1323;22910;-90
2022/12/26 12:17:34;;;;;;;52.50;47.20;;;;;;;9.12;96.12;97718.33;105127;1324;22277;-88
2022/12/26 12:20:29;;;;;;;30.80;27.90;;;;;;;9.12;95.49;97718.95;105455;1323;22190;-84
2022/12/26 12:23:23;;;;;;;62.20;56.10;;;;;;;10.10;95.53;97720.90;105193;1323;23028;-90
2022/12/26 12:26:14;;;;;;;39.60;35.80;;;;;;;11.65;94.98;97702.65;105343;1324;22191;-86
2022/12/26 12:29:00;;;;;;;55.60;50.20;;;;;;;11.88;92.11;97699.06;105435;1323;22235;-87
2022/12/26 12:32:22;;;;;;;34.30;31.00;;;;;;;11.39;90.00;97711.18;105359;1324;22224;-91
2022/12/26 12:34:59;;;;;;;28.50;25.80;;;;;;;11.84;89.40;97714.13;105458;1324;22166;-90
2022/12/26 12:37:34;;;;;;;36.50;33.20;;;;;;;11.40;90.49;97721.95;105435;1322;22800;-89
2022/12/26 12:40:34;;;;;;;32.90;29.90;;;;;;;10.98;90.77;97726.60;105558;1318;22245;-93
2022/12/26 12:43:36;;;;;;;30.70;27.70;;;;;;;10.57;90.46;97719.71;105274;1324;22089;-94
2022/12/26 12:46:30;;;;;;;27.60;24.80;;;;;;;10.29;90.21;97720.60;105413;1323;22208;-87
2022/12/26 12:49:22;;;;;;;29.60;26.70;;;;;;;10.09;90.34;97716.10;105964;1317;22075;-88
2022/12/26 12:52:18;;;;;;;29.40;26.30;;;;;;;9.94;90.15;97719.78;105112;1324;22177;-87
2022/12/26 12:55:37;;;;;;;32.80;29.60;;;;;;;9.78;90.29;97710.02;105315;1319;22077;-90
2022/12/26 12:58:40;;;;;;;26.10;23.50;;;;;;;9.63;89.85;97714.66;104613;1318;22219;-87
2022/12/26 13:01:20;;;;;;;26.60;23.60;;;;;;;9.53;90.31;97716.06;104218;1336;22143;-88
2022/12/26 13:04:28;;;;;;;27.10;23.20;;;;;;;9.64;89.96;97712.86;104237;1330;22283;-87
2022/12/26 13:07:10;;;;;;;24.00;21.40;;;;;;;9.95;89.75;97712.92;104202;1330;22238;-89
2022/12/26 13:09:46;;;;;;;25.90;22.30;;;;;;;10.39;88.66;97723.23;104175;1336;22320;-87
2022/12/26 13:12:19;;;;;;;24.40;22.00;;;;;;;10.72;89.08;97720.14;104162;1336;22402;-89
2022/12/26 13:14:59;;;;;;;23.10;20.80;;;;;;;11.02;87.44;97722.54;104141;1336;22257;-89
2022/12/26 13:17:34;;;;;;;23.40;19.60;;;;;;;11.14;86.22;97726.95;104187;1336;22178;-89
2022/12/26 13:20:14;;;;;;;23.70;21.00;;;;;;;11.26;84.86;97726.12;104412;1314;23091;-89
2022/12/26 13:25:43;;;;;;;22.00;19.60;;;;;;;10.76;85.40;97723.73;104502;1328;22277;-89
2022/12/26 13:28:18;;;;;;;19.90;17.90;;;;;;;10.47;84.64;97735.02;104414;1321;22258;-88
2022/12/26 13:30:52;;;;;;;21.80;19.70;;;;;;;10.24;85.22;97737.73;104152;1336;22253;-90
2022/12/26 13:33:21;;;;;;;20.80;18.70;;;;;;;10.07;85.10;97740.42;104634;1332;22192;-88
2022/12/26 13:35:58;;;;;;;21.00;18.70;;;;;;;9.91;85.19;97745.73;104813;1324;22094;-89
2022/12/26 13:38:57;;;;;;;22.50;20.30;;;;;;;9.78;85.12;97740.38;105249;1324;22758;-89
2022/12/26 13:44:19;;;;;;;18.20;16.40;;;;;;;10.32;86.51;97728.56;105287;1324;22710;-89
2022/12/26 13:46:47;;;;;;;20.40;18.30;;;;;;;10.90;84.88;97730.79;105456;1318;22059;-89
2022/12/26 13:49:27;;;;;;;23.20;20.90;;;;;;;10.68;85.01;97732.23;105425;1324;22202;-90
2022/12/26 13:52:18;;;;;;;19.20;17.30;;;;;;;10.39;84.74;97736.14;105077;1324;22396;-88
2022/12/26 13:54:46;;;;;;;24.70;22.20;;;;;;;10.10;84.24;97733.67;104969;1324;22274;-89
2022/12/26 13:57:33;;;;;;;23.00;20.80;;;;;;;9.96;84.59;97733.56;105417;1324;22909;-89
2022/12/26 14:00:07;;;;;;;25.10;22.70;;;;;;;9.75;85.11;97733.86;105244;1318;22340;-89
2022/12/26 14:02:54;;;;;;;;;;;;;;;9.59;85.01;97728.16;105435;1323;22290;-89
2022/12/26 14:05:48;;;;;;;20.70;18.60;;;;;;;9.42;85.12;97725.84;105785;1317;22092;-90
2022/12/26 14:08:41;;;;;;;25.30;22.70;;;;;;;9.37;85.67;97717.45;105805;1317;22263;-91
2022/12/26 14:11:48;;;;;;;28.80;26.20;;;;;;;9.33;86.16;97725.44;105795;1305;22773;-91